Rocklin, CA

9:25 AM PDT on August 30, 2014 (GMT -0700)
Stanford Ranch | Change Station
CLOSE
Current Station
Personal Weather Station
Location: Rocklin, CA
Elevation: 161 ft
Nearby Weather Stations

Elev 161 ft 38.81 °N, 121.26 °W | Updated 13 minutes ago

Clear
Clear
76.0 °F
Feels Like 78 °F
N
4.0
Wind Variable Wind from SSE

Today
High -- | Low -- °F
--% Chance of Precip.
Yesterday
High -- | Low -- °F
Precip. -- in
6:32 AM 7:38 PM
Waxing Crescent, 23% visible
Pressure 29.87 in
Visibility 10.0 miles
Clouds Few 20000 ft
Heat Index 78 °F
Dew Point 54 °F
Humidity 46%
Rainfall 0.00 in
Snow Depth Not available.
UV 2 out of 12
Pollen 9.20 out of 12
Ozone Good
PM2.5 Good
Flu Activity Not available.
METAR KMHR 301545Z 22006KT 10SM FEW200 23/10 A2987

More Conditions Fewer Conditions

Pressure 29.87 in
Visibility 10.0 miles
Clouds Few 20000 ft
Heat Index 78 °F
Dew Point 54 °F
Humidity 46%
Rainfall 0.00 in
Snow Depth Not available.
UV 2 out of 12
Pollen 9.20 out of 12
Ozone Good
PM2.5 Good
Flu Activity Not available.
METAR KMHR 301545Z 22006KT 10SM FEW200 23/10 A2987

More Conditions Fewer Conditions

10-Day Weather Forecast

Almanac

Astronomy

Aug. 30, 2014 Rise Set
Actual Time 6:32 AM PDT 7:38 PM PDT
Civil Twilight 6:04 AM PDT 8:05 PM PDT
Nautical Twilight 5:32 AM PDT 8:38 PM PDT
Astronomical Twilight 4:58 AM PDT 9:11 PM PDT
Moon 11:21 AM PDT 10:19 PM PDT
Length of Visible Light 14h 00m
Length of Day
13h 05m
Tomorrow will be 2m 25s shorter.
Waxing Crescent, 23% of the Moon is Illuminated
Today
Waxing Crescent
Sep 2
First Quarter
Sep 8
Full
Sep 15
Last Quarter
Sep 24
New

Today's Extremes

State Highs State Lows

Community

WunderPhotos

Upload Photos

1,748,556 photos uploaded!

WunderBlogs® & News

Nearby

Air Quality

  Air Quality AQ Index Pollutant
Yesterday Moderate
OZONE
Yesterday Good
PM2.5
Current Good
PM2.5
Current Good
OZONE
Saturday Moderate
OZONE
Sunday Moderate
OZONE
Monday Moderate
OZONE
Tuesday Moderate
OZONE
Wednesday Moderate
OZONE

Snow Depth

Station Depth Elevation
CSS Lab 4 in 6900 ft
Echo Peak 0 in 7800 ft
Tahoe City Cross 0 in 6750 ft
Forestdale Creek 0 in 8029 ft
Hagan's Meadow 0 in 8000 ft

Earthquake Activity

City Distance Mag. Time & Date
The Geysers, California 84 miles 2.7 2:53 PM PDT
2014-08-29
Minimum magnitude displayed is 2.5.

Coastal Water Temperatures

Place Temperature
No Stations Reporting

Nearby Weather Stations